Главная страница
METAR-TAF:

METAR-TAF

Аэропорты :

Яунде, Камерун

широта: 03-50N, долгота: 011-31E, высота над уровнем моря: 751 м

Текущие метеонаблюдения

Эта сводка был подготовлена 34 минут назад, в 14:00 UTC
Температура 25°C
Влажность 79%
Давление 1015 hPa
Видимость 10 км и более
Рассеянная облачность на высоте 1600 фута

METAR: FKYS 251400Z /////KT 9999 BKN016 25/21 Q1015 NOSIG

Время: 15:34 (14:34 UTC)

Прогноз

Эта сводка был подготовлена 3 часа и 34 минут назад, в 11:00 UTC
Прогноз действительный с 25-го 12 UTC до 26-го 12 UTC
Ветер 6 Узел от западный
Видимость 10 км и более
Рассеянная облачность на высоте 1600 фута
изменения
С 25-го 20 UTC до 25-го 22 UTC
Рассеянная облачность на высоте 600 фута
изменения
С 26-го 06 UTC до 26-го 08 UTC
Рассеянная облачность на высоте 1600 фута

TAF: FKYS 251100Z 2512/2612 26006KT 9999 BKN016 BECMG 2520/2522 BKN006 BECMG 2606/2608 BKN016

Метеонаблюдения и прогнозы для более 4000 аэропортов (сводки METAR и TAF).

Имеющиеся станции представлены на карте желтыми и красными точками.

Чтобы увидеть название станции, наведите на нее мышь.

Затем щелкните, чтобы увидеть метеонаблюдения и метеопрогнозы.

Управление картой: чтобы увеличить масштаб, щелкните зеленые кнопки с черным крестиком; чтобы уменьшить масштаб, щелкните зеленую кнопку с тире; для просмотра соседних карт щелкайте зеленые стрелки.


METAR-TAF: